FW8667 Weather Reports


Display with metric or nautical units.
time (UTC)temp
F
wind
direction
speed
MPH
gust
MPH
rain 1hr
in
rain 24hr
in
rain mn
in
humidity
%
barometer
mb
20220704030326 97 286 6.0 9.0 0.00 0.00 0.00 23 998.0
20220704025826 96 265 4.0 4.0 0.00 0.00 0.00 25 998.2
20220704025326 96 258 2.0 4.0 0.00 0.00 0.00 25 998.0
20220704024825 96 313 3.0 7.0 0.00 0.00 0.00 25 998.0
20220704024323 96 308 4.0 10.0 0.00 0.00 0.00 25 997.7
20220704023823 96 283 5.0 9.0 0.00 0.00 0.00 24 998.0
20220704023321 96 268 5.0 6.0 0.00 0.00 0.00 25 997.7
20220704022820 96 283 4.0 11.0 0.00 0.00 0.00 25 997.8
20220704022320 95 255 4.0 5.0 0.00 0.00 0.00 25 997.6
20220704021819 96 274 3.0 7.0 0.00 0.00 0.00 25 997.6
20220704021318 96 310 3.0 6.0 0.00 0.00 0.00 25 997.5
20220704020817 96 300 9.0 11.0 0.00 0.00 0.00 25 997.4
20220704020315 96 280 4.0 6.0 0.00 0.00 0.00 26 997.3
20220704015814 96 304 2.0 7.0 0.00 0.00 0.00 25 997.4
20220704015313 96 294 1.0 8.0 0.00 0.00 0.00 25 997.4
20220704014813 96 295 4.0 6.0 0.00 0.00 0.00 25 997.4
20220704014313 96 265 4.0 7.0 0.00 0.00 0.00 25 997.2
20220704013812 96 292 3.0 9.0 0.00 0.00 0.00 25 997.2
20220704013312 96 308 4.0 12.0 0.00 0.00 0.00 24 997.3
20220704012810 96 295 2.0 8.0 0.00 0.00 0.00 24 997.2
20220704012308 96 243 2.0 6.0 0.00 0.00 0.00 24 997.2
20220704011807 96 345 3.0 14.0 0.00 0.00 0.00 23 997.3
20220704011307 96 300 5.0 10.0 0.00 0.00 0.00 23 997.2
20220704010806 96 276 4.0 10.0 0.00 0.00 0.00 22 997.3
20220704010305 96 315 3.0 7.0 0.00 0.00 0.00 21 997.3
20220704005804 96 297 6.0 9.0 0.00 0.00 0.00 20 996.9
20220704005303 96 288 5.0 10.0 0.00 0.00 0.00 20 997.0
20220704004801 96 282 6.0 10.0 0.00 0.00 0.00 20 997.2
20220704004301 96 281 5.0 9.0 0.00 0.00 0.00 19 997.0
20220704003800 96 309 3.0 8.0 0.00 0.00 0.00 20 997.1
20220704003259 97 320 2.0 7.0 0.00 0.00 0.00 19 996.8
20220704002757 97 255 6.0 10.0 0.00 0.00 0.00 18 996.9
20220704002256 98 221 6.0 13.0 0.00 0.00 0.00 18 997.0
20220704001755 98 285 7.0 12.0 0.00 0.00 0.00 18 997.3
20220704001255 98 285 4.0 11.0 0.00 0.00 0.00 18 997.2
20220704000754 98 289 4.0 10.0 0.00 0.00 0.00 17 997.2
20220704000253 98 313 3.0 10.0 0.00 0.00 0.00 17 997.2
20220703235752 98 285 3.0 4.0 0.00 0.00 0.00 17 997.1
20220703235251 98 307 5.0 7.0 0.00 0.00 0.00 17 997.1
20220703234750 98 300 3.0 12.0 0.00 0.00 0.00 17 996.9
20220703234250 99 277 9.0 12.0 0.00 0.00 0.00 16 996.9
20220703233748 99 276 2.0 7.0 0.00 0.00 0.00 16 996.9
20220703233247 99 0 4.0 7.0 0.00 0.00 0.00 16 996.9
20220703232748 100 282 6.0 10.0 0.00 0.00 0.00 16 997.0
20220703232247 100 246 4.0 7.0 0.00 0.00 0.00 15 996.8
20220703231745 99 304 6.0 8.0 0.00 0.00 0.00 16 997.0
20220703231243 100 298 4.0 7.0 0.00 0.00 0.00 15 997.0
20220703230743 100 280 8.0 12.0 0.00 0.00 0.00 15 997.1
20220703230241 101 292 4.0 9.0 0.00 0.00 0.00 15 997.1
20220703225741 101 246 5.0 14.0 0.00 0.00 0.00 15 997.2
20220703225240 102 296 4.0 11.0 0.00 0.00 0.00 15 997.1
20220703224738 102 270 6.0 10.0 0.00 0.00 0.00 15 997.0
20220703224238 102 241 13.0 13.0 0.00 0.00 0.00 15 997.0
20220703223737 102 257 4.0 9.0 0.00 0.00 0.00 15 997.0
20220703223236 102 301 4.0 9.0 0.00 0.00 0.00 15 997.1
20220703222734 102 250 5.0 8.0 0.00 0.00 0.00 15 997.2
20220703222234 102 304 5.0 11.0 0.00 0.00 0.00 15 997.1
20220703221734 102 247 4.0 7.0 0.00 0.00 0.00 16 997.3
20220703221235 102 218 7.0 8.0 0.00 0.00 0.00 15 997.1
20220703220734 102 252 5.0 10.0 0.00 0.00 0.00 15 997.0
20220703220232 102 303 2.0 4.0 0.00 0.00 0.00 16 997.3
20220703215731 102 298 4.0 5.0 0.00 0.00 0.00 16 997.3
20220703215230 103 265 6.0 7.0 0.00 0.00 0.00 15 997.1
20220703214728 102 292 0.0 6.0 0.00 0.00 0.00 15 997.1
20220703214227 102 289 3.0 6.0 0.00 0.00 0.00 16 997.2
20220703213727 103 250 4.0 7.0 0.00 0.00 0.00 16 997.3
20220703213226 104 244 5.0 9.0 0.00 0.00 0.00 16 997.1
20220703212725 103 270 5.0 10.0 0.00 0.00 0.00 16 997.1
20220703212224 103 270 1.0 4.0 0.00 0.00 0.00 16 997.3
20220703211723 102 255 5.0 9.0 0.00 0.00 0.00 16 997.3
20220703211222 102 243 5.0 10.0 0.00 0.00 0.00 16 997.4
20220703210721 102 270 3.0 7.0 0.00 0.00 0.00 16 997.3
20220703210220 102 298 3.0 6.0 0.00 0.00 0.00 16 997.3
20220703205718 102 280 0.0 7.0 0.00 0.00 0.00 16 997.6
20220703205217 102 300 4.0 7.0 0.00 0.00 0.00 15 997.5
20220703204716 102 250 5.0 8.0 0.00 0.00 0.00 16 997.3
20220703204215 103 278 3.0 5.0 0.00 0.00 0.00 16 997.5
20220703203714 103 287 2.0 5.0 0.00 0.00 0.00 16 997.5
20220703203213 103 277 3.0 7.0 0.00 0.00 0.00 16 997.7
20220703202712 103 280 4.0 7.0 0.00 0.00 0.00 16 997.6
20220703202211 103 315 2.0 7.0 0.00 0.00 0.00 16 997.8
20220703201710 103 287 4.0 9.0 0.00 0.00 0.00 16 997.7
20220703201209 103 345 3.0 5.0 0.00 0.00 0.00 16 997.7
20220703200708 104 301 3.0 5.0 0.00 0.00 0.00 16 997.8
20220703200207 104 248 3.0 7.0 0.00 0.00 0.00 16 998.0
20220703195706 104 291 3.0 5.0 0.00 0.00 0.00 16 998.0
20220703195204 104 270 2.0 6.0 0.00 0.00 0.00 16 998.0
20220703194704 104 277 3.0 6.0 0.00 0.00 0.00 16 998.0
20220703194203 104 342 0.0 9.0 0.00 0.00 0.00 16 998.0
20220703193701 104 342 2.0 4.0 0.00 0.00 0.00 16 997.9
20220703193200 104 282 5.0 7.0 0.00 0.00 0.00 16 998.0
20220703192700 104 260 5.0 9.0 0.00 0.00 0.00 16 998.3
20220703192200 104 262 1.0 5.0 0.00 0.00 0.00 16 998.2
20220703191659 105 276 5.0 7.0 0.00 0.00 0.00 16 998.1
20220703191200 105 313 4.0 7.0 0.00 0.00 0.00 16 998.4
20220703190658 105 343 3.0 6.0 0.00 0.00 0.00 16 998.5
20220703190158 105 275 4.0 8.0 0.00 0.00 0.00 16 998.2
20220703185656 105 275 4.0 8.0 0.00 0.00 0.00 16 998.2
20220703185157 105 299 3.0 11.0 0.00 0.00 0.00 16 998.1
20220703184657 105 289 3.0 9.0 0.00 0.00 0.00 16 998.0
20220703184156 105 307 4.0 9.0 0.00 0.00 0.00 17 998.1
20220703183654 105 258 3.0 14.0 0.00 0.00 0.00 16 997.9
20220703183154 105 310 3.0 9.0 0.00 0.00 0.00 17 998.1
20220703182653 105 294 2.0 8.0 0.00 0.00 0.00 17 997.9
20220703182152 105 268 8.0 9.0 0.00 0.00 0.00 17 998.1
20220703181651 105 20 1.0 9.0 0.00 0.00 0.00 17 997.9
20220703181150 105 288 5.0 7.0 0.00 0.00 0.00 17 997.8
20220703180650 105 287 4.0 9.0 0.00 0.00 0.00 18 998.0
20220703180149 105 285 6.0 9.0 0.00 0.00 0.00 18 998.0
20220703175648 105 291 5.0 9.0 0.00 0.00 0.00 19 997.7
20220703175147 105 6 3.0 14.0 0.00 0.00 0.00 18 997.7
20220703174646 103 270 2.0 7.0 0.00 0.00 0.00 24 997.7
20220703174145 102 314 4.0 7.0 0.00 0.00 0.00 28 997.6
20220703173645 101 321 3.0 7.0 0.00 0.00 0.00 31 997.7
20220703173145 99 330 3.0 7.0 0.00 0.00 0.00 39 997.6
20220703172644 100 342 7.0 7.0 0.00 0.00 0.00 35 997.7
20220703172143 102 303 4.0 9.0 0.00 0.00 0.00 28 997.7
20220703171643 103 306 2.0 7.0 0.00 0.00 0.00 26 997.7
20220703171143 100 311 3.0 7.0 0.00 0.00 0.00 33 997.7
20220703170643 101 292 4.0 5.0 0.00 0.00 0.00 32 997.6
20220703170142 102 294 0.0 7.0 0.00 0.00 0.00 30 997.4
20220703165641 100 310 3.0 8.0 0.00 0.00 0.00 35 997.5
20220703165141 98 357 2.0 5.0 0.00 0.00 0.00 42 997.4
20220703164641 99 305 4.0 5.0 0.00 0.00 0.00 41 997.5
20220703164139 99 290 2.0 6.0 0.00 0.00 0.00 42 997.4
20220703163637 100 348 0.0 6.0 0.00 0.00 0.00 38 997.1
20220703163136 99 270 3.0 7.0 0.00 0.00 0.00 40 997.2
20220703162634 100 288 4.0 7.0 0.00 0.00 0.00 39 997.6
20220703162133 100 354 3.0 8.0 0.00 0.00 0.00 38 997.3
20220703161632 101 304 4.0 7.0 0.00 0.00 0.00 33 997.2
20220703161132 100 342 4.0 6.0 0.00 0.00 0.00 37 997.2
20220703160632 100 317 5.0 7.0 0.00 0.00 0.00 35 997.0
20220703160132 99 288 5.0 7.0 0.00 0.00 0.00 40 997.3
20220703155631 100 328 5.0 7.0 0.00 0.00 0.00 38 997.3
20220703155129 100 307 0.0 5.0 0.00 0.00 0.00 39 997.1
20220703154628 100 303 6.0 8.0 0.00 0.00 0.00 37 997.3
20220703154127 103 296 3.0 6.0 0.00 0.00 0.00 32 997.0
20220703153628 106 327 3.0 13.0 0.00 0.00 0.00 25 997.1
20220703153126 106 321 4.0 11.0 0.00 0.00 0.00 20 997.0
20220703152625 105 343 6.0 12.0 0.00 0.00 0.00 22 997.1
20220703152124 106 311 3.0 10.0 0.00 0.00 0.00 20 997.0
20220703151623 107 266 3.0 8.0 0.00 0.00 0.00 18 996.9
20220703151122 107 296 8.0 11.0 0.00 0.00 0.00 18 996.9
20220703150622 107 287 6.0 10.0 0.00 0.00 0.00 19 997.0
20220703150122 107 306 8.0 11.0 0.00 0.00 0.00 19 997.1
20220703145621 107 287 7.0 13.0 0.00 0.00 0.00 20 997.0
20220703145121 107 311 6.0 13.0 0.00 0.00 0.00 20 996.9
20220703144620 106 295 6.0 13.0 0.00 0.00 0.00 22 996.8
20220703144119 106 294 7.0 13.0 0.00 0.00 0.00 25 996.7
20220703143618 104 300 12.0 12.0 0.00 0.00 0.00 29 996.7
20220703143117 104 306 7.0 14.0 0.00 0.00 0.00 27 996.7
20220703142616 104 296 10.0 15.0 0.00 0.00 0.00 27 996.6
20220703142115 105 322 8.0 13.0 0.00 0.00 0.00 27 996.6
20220703141614 107 277 7.0 20.0 0.00 0.00 0.00 22 996.5
20220703141112 106 305 7.0 12.0 0.00 0.00 0.00 25 996.4
20220703140611 107 283 10.0 14.0 0.00 0.00 0.00 24 996.5
20220703140110 103 333 6.0 11.0 0.00 0.00 0.00 31 996.3
20220703135609 103 307 7.0 12.0 0.00 0.00 0.00 35 996.6
20220703135109 102 312 3.0 9.0 0.00 0.00 0.00 39 996.4
20220703134609 105 357 6.0 12.0 0.00 0.00 0.00 30 996.5
20220703134107 104 315 15.0 15.0 0.00 0.00 0.00 29 996.4
20220703133607 104 290 10.0 15.0 0.00 0.00 0.00 32 996.4
20220703133106 102 293 6.0 11.0 0.00 0.00 0.00 35 996.4
20220703132605 104 290 3.0 9.0 0.00 0.00 0.00 33 996.3
20220703132104 103 330 8.0 9.0 0.00 0.00 0.00 34 996.5
20220703131603 104 304 11.0 11.0 0.00 0.00 0.00 32 996.4
20220703131102 104 332 8.0 13.0 0.00 0.00 0.00 30 996.3
20220703130602 105 293 10.0 11.0 0.00 0.00 0.00 28 996.5
20220703130101 107 311 10.0 15.0 0.00 0.00 0.00 24 996.6
20220703125601 106 290 8.0 14.0 0.00 0.00 0.00 25 996.6
20220703125100 106 297 9.0 12.0 0.00 0.00 0.00 28 996.8
20220703124600 106 305 6.0 16.0 0.00 0.00 0.00 27 996.4
20220703124059 107 312 7.0 10.0 0.00 0.00 0.00 25 996.7
20220703123558 106 320 5.0 11.0 0.00 0.00 0.00 28 996.6
20220703123057 105 329 5.0 13.0 0.00 0.00 0.00 28 996.7
20220703122557 104 304 6.0 13.0 0.00 0.00 0.00 29 996.7
20220703122055 105 306 6.0 9.0 0.00 0.00 0.00 30 996.9
20220703121554 105 2 3.0 11.0 0.00 0.00 0.00 31 996.7
20220703121053 105 259 2.0 12.0 0.00 0.00 0.00 30 996.8
20220703120552 105 290 9.0 14.0 0.00 0.00 0.00 28 996.7
20220703120048 104 322 7.0 9.0 0.00 0.00 0.00 32 996.8
20220703115547 105 305 8.0 9.0 0.00 0.00 0.00 29 996.9
20220703115045 104 283 4.0 11.0 0.00 0.00 0.00 33 996.9
20220703114545 103 311 5.0 12.0 0.00 0.00 0.00 30 997.0
20220703114044 102 313 4.0 13.0 0.00 0.00 0.00 35 997.3
20220703113543 101 308 6.0 11.0 0.00 0.00 0.00 39 997.1
20220703113042 102 322 9.0 11.0 0.00 0.00 0.00 35 997.0
20220703112541 103 318 7.0 12.0 0.00 0.00 0.00 33 997.4
20220703112040 104 315 3.0 10.0 0.00 0.00 0.00 28 997.1
20220703111539 103 311 8.0 9.0 0.00 0.00 0.00 32 997.4
20220703111038 104 291 10.0 12.0 0.00 0.00 0.00 29 997.4
20220703110537 104 345 6.0 9.0 0.00 0.00 0.00 34 997.3
20220703110036 103 313 7.0 9.0 0.00 0.00 0.00 33 997.4
20220703105534 102 325 5.0 14.0 0.00 0.00 0.00 36 997.3
20220703105031 103 315 12.0 14.0 0.00 0.00 0.00 29 997.4
20220703104530 103 346 6.0 13.0 0.00 0.00 0.00 32 997.4
20220703104030 104 353 3.0 10.0 0.00 0.00 0.00 29 997.6
20220703103528 104 323 10.0 12.0 0.00 0.00 0.00 29 997.3
20220703103028 104 312 7.0 14.0 0.00 0.00 0.00 25 997.4
20220703102527 105 320 4.0 13.0 0.00 0.00 0.00 28 997.6
20220703102028 106 313 7.0 13.0 0.00 0.00 0.00 21 997.6
20220703101526 107 305 5.0 17.0 0.00 0.00 0.00 18 997.6
20220703101026 106 305 9.0 11.0 0.00 0.00 0.00 20 997.7
20220703100525 105 307 12.0 16.0 0.00 0.00 0.00 22 997.7
20220703100024 103 346 9.0 14.0 0.00 0.00 0.00 29 997.8
20220703095522 104 282 4.0 8.0 0.00 0.00 0.00 29 997.8
20220703095022 103 349 5.0 8.0 0.00 0.00 0.00 31 997.8
20220703094521 104 354 4.0 13.0 0.00 0.00 0.00 27 997.9
20220703094020 103 318 14.0 19.0 0.00 0.00 0.00 25 997.7
20220703093520 101 305 3.0 13.0 0.00 0.00 0.00 32 998.1
20220703093019 102 317 5.0 10.0 0.00 0.00 0.00 34 997.9
20220703092517 101 325 6.0 11.0 0.00 0.00 0.00 33 997.9
20220703092016 101 337 9.0 10.0 0.00 0.00 0.00 34 998.3
20220703091515 102 335 6.0 11.0 0.00 0.00 0.00 31 998.0
20220703091014 102 335 6.0 9.0 0.00 0.00 0.00 32 998.2
20220703090515 102 293 5.0 7.0 0.00 0.00 0.00 32 998.2
20220703090014 101 325 6.0 9.0 0.00 0.00 0.00 34 998.3
20220703085513 102 350 3.0 7.0 0.00 0.00 0.00 31 998.3
20220703085013 101 279 2.0 9.0 0.00 0.00 0.00 34 998.3
20220703084511 103 328 0.0 9.0 0.00 0.00 0.00 29 998.6
20220703084009 102 315 7.0 11.0 0.00 0.00 0.00 28 998.6
20220703083508 101 302 5.0 10.0 0.00 0.00 0.00 33 998.7
20220703083008 101 312 5.0 9.0 0.00 0.00 0.00 35 998.5
20220703082508 101 314 5.0 7.0 0.00 0.00 0.00 33 998.6
20220703082007 100 352 8.0 12.0 0.00 0.00 0.00 31 998.7
20220703081507 99 342 7.0 9.0 0.00 0.00 0.00 38 998.8
20220703081006 100 328 10.0 10.0 0.00 0.00 0.00 35 998.8
20220703080506 101 338 5.0 11.0 0.00 0.00 0.00 33 998.8
20220703080006 101 314 5.0 13.0 0.00 0.00 0.00 28 999.1
20220703075505 101 341 8.0 13.0 0.00 0.00 0.00 31 999.1
20220703075004 101 297 8.0 17.0 0.00 0.00 0.00 25 998.9
20220703074503 100 307 5.0 13.0 0.00 0.00 0.00 35 999.3
20220703074002 101 315 16.0 16.0 0.00 0.00 0.00 28 999.2
20220703073500 101 334 6.0 13.0 0.00 0.00 0.00 30 999.0
20220703073000 100 280 7.0 18.0 0.00 0.00 0.00 27 999.2
20220703072458 99 348 7.0 15.0 0.00 0.00 0.00 32 999.2
20220703071958 99 345 5.0 12.0 0.00 0.00 0.00 33 999.2
20220703071457 100 300 5.0 19.0 0.00 0.00 0.00 26 999.4
20220703070956 101 355 5.0 13.0 0.00 0.00 0.00 23 999.3
20220703070455 101 314 5.0 11.0 0.00 0.00 0.00 28 999.1
20220703065953 103 323 6.0 13.0 0.00 0.00 0.00 22 999.0
20220703065452 101 288 13.0 16.0 0.00 0.00 0.00 21 999.2
20220703064951 102 286 10.0 15.0 0.00 0.00 0.00 20 999.1
20220703064449 101 279 6.0 14.0 0.00 0.00 0.00 22 999.3
20220703063948 101 290 7.0 11.0 0.00 0.00 0.00 21 999.3
20220703063447 101 309 9.0 15.0 0.00 0.00 0.00 21 999.3
20220703062946 100 301 11.0 15.0 0.00 0.00 0.00 20 999.2
20220703062445 100 303 9.0 13.0 0.00 0.00 0.00 21 999.2
20220703061944 101 305 7.0 13.0 0.00 0.00 0.00 22 999.2
20220703061444 100 285 5.0 10.0 0.00 0.00 0.00 22 999.4
20220703060944 100 277 10.0 11.0 0.00 0.00 0.00 22 999.2
20220703060445 100 307 4.0 8.0 0.00 0.00 0.00 23 999.2
20220703055944 100 312 6.0 13.0 0.00 0.00 0.00 23 999.1
20220703055443 99 290 11.0 14.0 0.00 0.00 0.00 22 999.2
20220703054943 99 353 3.0 11.0 0.00 0.00 0.00 22 999.2
20220703054442 99 288 10.0 10.0 0.00 0.00 0.00 24 999.2
20220703053940 99 285 7.0 11.0 0.00 0.00 0.00 22 999.1
20220703053439 98 318 7.0 12.0 0.00 0.00 0.00 23 999.1
20220703052938 98 293 6.0 10.0 0.00 0.00 0.00 24 998.9
20220703052437 98 308 7.0 15.0 0.00 0.00 0.00 24 999.2
20220703051936 98 315 7.0 11.0 0.00 0.00 0.00 25 999.2
20220703051435 98 293 9.0 12.0 0.00 0.00 0.00 26 999.2
20220703050934 98 281 3.0 9.0 0.00 0.00 0.00 25 999.1
20220703050433 97 317 5.0 10.0 0.00 0.00 0.00 24 999.1
20220703045933 97 319 7.0 8.0 0.00 0.00 0.00 25 999.0
20220703045432 97 300 3.0 10.0 0.00 0.00 0.00 25 998.9
20220703044931 97 290 6.0 9.0 0.00 0.00 0.00 24 999.1
20220703044432 97 292 4.0 10.0 0.00 0.00 0.00 24 999.1
20220703043931 97 319 2.0 11.0 0.00 0.00 0.00 24 999.0
20220703043430 97 304 4.0 9.0 0.00 0.00 0.00 25 998.9
20220703042929 97 327 3.0 8.0 0.00 0.00 0.00 25 998.9
20220703042428 97 317 5.0 5.0 0.00 0.00 0.00 26 998.9
20220703041927 96 258 5.0 7.0 0.00 0.00 0.00 26 998.9
20220703041426 97 317 4.0 8.0 0.00 0.00 0.00 25 999.0
20220703040925 96 286 2.0 7.0 0.00 0.00 0.00 26 999.0
20220703040424 96 315 2.0 7.0 0.00 0.00 0.00 26 999.0
20220703035923 96 295 2.0 9.0 0.00 0.00 0.00 26 999.0
20220703035423 95 287 7.0 7.0 0.00 0.00 0.00 26 998.9
20220703034922 95 275 2.0 6.0 0.00 0.00 0.00 27 999.2
20220703034422 95 336 6.0 8.0 0.00 0.00 0.00 26 999.0
20220703033921 95 266 5.0 8.0 0.00 0.00 0.00 26 998.9
20220703033420 95 261 5.0 10.0 0.00 0.00 0.00 26 998.9
20220703032919 95 282 5.0 7.0 0.00 0.00 0.00 26 999.1
20220703032418 95 280 3.0 9.0 0.00 0.00 0.00 26 999.1
20220703031918 95 290 4.0 8.0 0.00 0.00 0.00 26 999.0
20220703031416 95 270 3.0 7.0 0.00 0.00 0.00 27 998.9
20220703030915 94 287 5.0 9.0 0.00 0.00 0.00 27 998.8